sensor_id;sensor_type;location;lat;lon;timestamp;pressure;altitude;pressure_sealevel;temperature;humidity
70468;BME280;57934;51.532;7.684;2022-09-13T00:02:03;99812.53;;;18.30;nan
70468;BME280;57934;51.532;7.684;2022-09-13T00:04:29;99816.00;;;18.31;nan
70468;BME280;57934;51.532;7.684;2022-09-13T00:06:55;99814.72;;;18.33;nan
70468;BME280;57934;51.532;7.684;2022-09-13T00:09:21;99814.41;;;18.30;nan
70468;BME280;57934;51.532;7.684;2022-09-13T00:11:47;99814.41;;;18.30;nan
70468;BME280;57934;51.532;7.684;2022-09-13T00:14:13;99812.81;;;18.29;nan
70468;BME280;57934;51.532;7.684;2022-09-13T00:16:39;99809.59;;;18.27;nan
70468;BME280;57934;51.532;7.684;2022-09-13T00:19:05;99800.50;;;18.28;nan
70468;BME280;57934;51.532;7.684;2022-09-13T00:21:31;99807.72;;;18.27;nan
70468;BME280;57934;51.532;7.684;2022-09-13T00:23:57;99803.44;;;18.26;nan
70468;BME280;57934;51.532;7.684;2022-09-13T00:26:25;99810.09;;;18.24;nan
70468;BME280;57934;51.532;7.684;2022-09-13T00:28:54;99808.72;;;18.21;nan
70468;BME280;57934;51.532;7.684;2022-09-13T00:31:21;99789.72;;;18.12;nan
70468;BME280;57934;51.532;7.684;2022-09-13T00:33:49;99783.28;;;18.08;nan
70468;BME280;57934;51.532;7.684;2022-09-13T00:36:15;99780.88;;;18.07;nan
70468;BME280;57934;51.532;7.684;2022-09-13T00:38:42;99775.00;;;18.05;nan
70468;BME280;57934;51.532;7.684;2022-09-13T00:41:14;99783.50;;;18.02;nan
70468;BME280;57934;51.532;7.684;2022-09-13T00:44:00;99777.41;;;18.06;nan
70468;BME280;57934;51.532;7.684;2022-09-13T00:46:39;99777.19;;;18.13;nan
70468;BME280;57934;51.532;7.684;2022-09-13T00:49:16;99768.41;;;18.18;nan
70468;BME280;57934;51.532;7.684;2022-09-13T00:51:55;99769.75;;;18.20;nan
70468;BME280;57934;51.532;7.684;2022-09-13T00:54:27;99775.69;;;18.27;nan
70468;BME280;57934;51.532;7.684;2022-09-13T00:56:57;99763.91;;;18.23;nan
70468;BME280;57934;51.532;7.684;2022-09-13T00:59:33;99757.50;;;18.24;nan
70468;BME280;57934;51.532;7.684;2022-09-13T01:02:00;99759.34;;;18.19;nan
70468;BME280;57934;51.532;7.684;2022-09-13T01:04:27;99760.09;;;18.14;nan
70468;BME280;57934;51.532;7.684;2022-09-13T01:06:57;99756.09;;;18.11;nan
70468;BME280;57934;51.532;7.684;2022-09-13T01:09:26;99755.28;;;18.11;nan
70468;BME280;57934;51.532;7.684;2022-09-13T01:11:58;99754.75;;;18.09;nan
70468;BME280;57934;51.532;7.684;2022-09-13T01:14:31;99752.59;;;18.11;nan
70468;BME280;57934;51.532;7.684;2022-09-13T01:16:57;99757.41;;;18.09;nan
70468;BME280;57934;51.532;7.684;2022-09-13T01:19:23;99746.97;;;18.07;nan
70468;BME280;57934;51.532;7.684;2022-09-13T01:35:46;99740.00;;;18.01;nan
70468;BME280;57934;51.532;7.684;2022-09-13T01:41:26;99748.25;;;18.00;nan
70468;BME280;57934;51.532;7.684;2022-09-13T01:44:16;99742.34;;;17.93;nan
70468;BME280;57934;51.532;7.684;2022-09-13T01:46:55;99736.19;;;17.87;nan
70468;BME280;57934;51.532;7.684;2022-09-13T01:49:46;99728.41;;;17.85;nan
70468;BME280;57934;51.532;7.684;2022-09-13T01:52:29;99741.22;;;17.83;nan
70468;BME280;57934;51.532;7.684;2022-09-13T01:57:53;99738.66;;;17.72;nan
70468;BME280;57934;51.532;7.684;2022-09-13T02:00:22;99745.38;;;17.74;nan
70468;BME280;57934;51.532;7.684;2022-09-13T02:03:02;99746.75;;;17.77;nan
70468;BME280;57934;51.532;7.684;2022-09-13T02:05:43;99744.91;;;17.82;nan
70468;BME280;57934;51.532;7.684;2022-09-13T02:08:24;99742.03;;;17.89;nan
70468;BME280;57934;51.532;7.684;2022-09-13T02:11:03;99742.84;;;17.89;nan
70468;BME280;57934;51.532;7.684;2022-09-13T02:13:36;99743.41;;;17.92;nan
70468;BME280;57934;51.532;7.684;2022-09-13T02:16:09;99740.16;;;17.89;nan
70468;BME280;57934;51.532;7.684;2022-09-13T02:18:39;99739.13;;;17.91;nan
70468;BME280;57934;51.532;7.684;2022-09-13T02:21:12;99737.50;;;17.89;nan
70468;BME280;57934;51.532;7.684;2022-09-13T02:24:01;99741.03;;;17.95;nan
70468;BME280;57934;51.532;7.684;2022-09-13T02:26:30;99751.69;;;17.95;nan
70468;BME280;57934;51.532;7.684;2022-09-13T02:29:01;99744.97;;;17.87;nan
70468;BME280;57934;51.532;7.684;2022-09-13T02:31:34;99742.31;;;17.87;nan
70468;BME280;57934;51.532;7.684;2022-09-13T02:34:13;99747.06;;;17.85;nan
70468;BME280;57934;51.532;7.684;2022-09-13T02:36:41;99750.31;;;17.87;nan
70468;BME280;57934;51.532;7.684;2022-09-13T02:39:18;99746.06;;;17.92;nan
70468;BME280;57934;51.532;7.684;2022-09-13T02:41:48;99750.59;;;17.91;nan
70468;BME280;57934;51.532;7.684;2022-09-13T02:44:38;99748.19;;;17.89;nan
70468;BME280;57934;51.532;7.684;2022-09-13T02:50:31;99737.28;;;17.96;nan
70468;BME280;57934;51.532;7.684;2022-09-13T02:53:14;99734.38;;;17.98;nan
70468;BME280;57934;51.532;7.684;2022-09-13T03:00:51;99731.22;;;18.01;nan
70468;BME280;57934;51.532;7.684;2022-09-13T03:03:17;99729.63;;;18.05;nan
70468;BME280;57934;51.532;7.684;2022-09-13T03:05:43;99723.44;;;17.99;nan
70468;BME280;57934;51.532;7.684;2022-09-13T03:08:11;99725.31;;;17.99;nan
70468;BME280;57934;51.532;7.684;2022-09-13T03:11:08;99738.16;;;18.02;nan
70468;BME280;57934;51.532;7.684;2022-09-13T03:16:34;99739.50;;;18.04;nan
70468;BME280;57934;51.532;7.684;2022-09-13T03:19:30;99738.16;;;18.02;nan
70468;BME280;57934;51.532;7.684;2022-09-13T03:27:17;99724.13;;;17.84;nan
70468;BME280;57934;51.532;7.684;2022-09-13T03:29:57;99724.81;;;17.75;nan
70468;BME280;57934;51.532;7.684;2022-09-13T03:37:35;99736.28;;;17.75;nan
70468;BME280;57934;51.532;7.684;2022-09-13T03:40:07;99744.38;;;17.80;nan
70468;BME280;57934;51.532;7.684;2022-09-13T03:45:09;99739.59;;;17.55;nan
70468;BME280;57934;51.532;7.684;2022-09-13T03:47:39;99738.59;;;17.34;nan
70468;BME280;57934;51.532;7.684;2022-09-13T03:50:07;99737.31;;;17.15;nan
70468;BME280;57934;51.532;7.684;2022-09-13T03:52:35;99743.34;;;17.05;nan
70468;BME280;57934;51.532;7.684;2022-09-13T03:55:01;99751.00;;;17.02;nan
70468;BME280;57934;51.532;7.684;2022-09-13T03:57:27;99736.34;;;16.99;nan
70468;BME280;57934;51.532;7.684;2022-09-13T03:59:55;99738.91;;;16.89;nan
70468;BME280;57934;51.532;7.684;2022-09-13T04:02:23;99737.41;;;16.76;nan
70468;BME280;57934;51.532;7.684;2022-09-13T04:04:50;99734.16;;;16.74;nan
70468;BME280;57934;51.532;7.684;2022-09-13T04:07:18;99734.09;;;16.69;nan
70468;BME280;57934;51.532;7.684;2022-09-13T04:09:45;99735.69;;;16.70;nan
70468;BME280;57934;51.532;7.684;2022-09-13T04:12:12;99734.03;;;16.64;nan
70468;BME280;57934;51.532;7.684;2022-09-13T04:14:39;99740.56;;;16.56;nan
70468;BME280;57934;51.532;7.684;2022-09-13T04:17:06;99730.44;;;16.53;nan
70468;BME280;57934;51.532;7.684;2022-09-13T04:19:32;99728.75;;;16.69;nan
70468;BME280;57934;51.532;7.684;2022-09-13T04:21:58;99728.66;;;16.81;nan
70468;BME280;57934;51.532;7.684;2022-09-13T04:24:26;99712.63;;;16.98;nan
70468;BME280;57934;51.532;7.684;2022-09-13T04:26:53;99706.91;;;17.11;nan
70468;BME280;57934;51.532;7.684;2022-09-13T04:29:21;99709.91;;;17.20;nan
70468;BME280;57934;51.532;7.684;2022-09-13T04:31:49;99701.78;;;17.31;nan
70468;BME280;57934;51.532;7.684;2022-09-13T04:34:15;99707.44;;;17.40;nan
70468;BME280;57934;51.532;7.684;2022-09-13T04:36:44;99708.56;;;17.44;nan
70468;BME280;57934;51.532;7.684;2022-09-13T04:39:10;99707.81;;;17.49;nan
70468;BME280;57934;51.532;7.684;2022-09-13T04:41:40;99719.56;;;17.53;nan
70468;BME280;57934;51.532;7.684;2022-09-13T04:44:06;99724.09;;;17.52;nan
70468;BME280;57934;51.532;7.684;2022-09-13T04:46:32;99716.66;;;17.54;nan
70468;BME280;57934;51.532;7.684;2022-09-13T04:48:58;99726.28;;;17.55;nan
70468;BME280;57934;51.532;7.684;2022-09-13T04:51:25;99718.78;;;17.52;nan
70468;BME280;57934;51.532;7.684;2022-09-13T04:53:52;99725.44;;;17.55;nan
70468;BME280;57934;51.532;7.684;2022-09-13T04:56:22;99731.41;;;17.62;nan
70468;BME280;57934;51.532;7.684;2022-09-13T04:58:53;99731.41;;;17.62;nan
70468;BME280;57934;51.532;7.684;2022-09-13T05:01:21;99730.75;;;17.50;nan
70468;BME280;57934;51.532;7.684;2022-09-13T05:03:47;99729.38;;;17.47;nan
70468;BME280;57934;51.532;7.684;2022-09-13T05:06:16;99728.63;;;17.52;nan
70468;BME280;57934;51.532;7.684;2022-09-13T05:08:51;99719.56;;;17.53;nan
70468;BME280;57934;51.532;7.684;2022-09-13T05:11:23;99711.91;;;17.61;nan
70468;BME280;57934;51.532;7.684;2022-09-13T05:13:50;99715.94;;;17.64;nan
70468;BME280;57934;51.532;7.684;2022-09-13T05:16:20;99716.75;;;17.64;nan
70468;BME280;57934;51.532;7.684;2022-09-13T05:18:46;99722.34;;;17.63;nan
70468;BME280;57934;51.532;7.684;2022-09-13T05:21:12;99713.28;;;17.64;nan
70468;BME280;57934;51.532;7.684;2022-09-13T05:23:38;99716.53;;;17.71;nan
70468;BME280;57934;51.532;7.684;2022-09-13T05:26:05;99719.75;;;17.73;nan
70468;BME280;57934;51.532;7.684;2022-09-13T05:28:33;99718.66;;;17.69;nan
70468;BME280;57934;51.532;7.684;2022-09-13T05:31:09;99715.13;;;17.63;nan
70468;BME280;57934;51.532;7.684;2022-09-13T05:33:37;99717.53;;;17.65;nan
70468;BME280;57934;51.532;7.684;2022-09-13T05:36:05;99715.44;;;17.67;nan
70468;BME280;57934;51.532;7.684;2022-09-13T05:38:31;99725.91;;;17.74;nan
70468;BME280;57934;51.532;7.684;2022-09-13T05:40:59;99717.41;;;17.77;nan
70468;BME280;57934;51.532;7.684;2022-09-13T05:43:27;99713.41;;;17.79;nan
70468;BME280;57934;51.532;7.684;2022-09-13T05:46:04;99719.88;;;17.83;nan
70468;BME280;57934;51.532;7.684;2022-09-13T05:48:32;99723.06;;;17.85;nan
70468;BME280;57934;51.532;7.684;2022-09-13T05:51:05;99725.50;;;17.87;nan
70468;BME280;57934;51.532;7.684;2022-09-13T05:53:33;99725.50;;;17.87;nan
70468;BME280;57934;51.532;7.684;2022-09-13T05:55:59;99723.94;;;17.91;nan
70468;BME280;57934;51.532;7.684;2022-09-13T05:58:25;99732.22;;;17.95;nan
70468;BME280;57934;51.532;7.684;2022-09-13T06:00:55;99733.31;;;17.99;nan
70468;BME280;57934;51.532;7.684;2022-09-13T06:03:22;99735.72;;;18.00;nan
70468;BME280;57934;51.532;7.684;2022-09-13T06:05:48;99730.38;;;18.00;nan
70468;BME280;57934;51.532;7.684;2022-09-13T06:08:15;99739.75;;;18.03;nan
70468;BME280;57934;51.532;7.684;2022-09-13T06:10:41;99738.44;;;18.05;nan
70468;BME280;57934;51.532;7.684;2022-09-13T06:13:07;99742.75;;;18.11;nan
70468;BME280;57934;51.532;7.684;2022-09-13T06:15:33;99736.88;;;18.09;nan
70468;BME280;57934;51.532;7.684;2022-09-13T06:17:59;99737.94;;;18.13;nan
70468;BME280;57934;51.532;7.684;2022-09-13T06:20:25;99736.09;;;18.14;nan
70468;BME280;57934;51.532;7.684;2022-09-13T06:22:51;99735.28;;;18.13;nan
70468;BME280;57934;51.532;7.684;2022-09-13T06:25:17;99736.38;;;18.18;nan
70468;BME280;57934;51.532;7.684;2022-09-13T06:27:43;99740.69;;;18.24;nan
70468;BME280;57934;51.532;7.684;2022-09-13T06:30:09;99731.63;;;18.25;nan
70468;BME280;57934;51.532;7.684;2022-09-13T06:32:37;99732.44;;;18.25;nan
70468;BME280;57934;51.532;7.684;2022-09-13T06:35:03;99734.56;;;18.28;nan
70468;BME280;57934;51.532;7.684;2022-09-13T06:37:29;99733.47;;;18.24;nan
70468;BME280;57934;51.532;7.684;2022-09-13T06:39:55;99736.72;;;18.26;nan
70468;BME280;57934;51.532;7.684;2022-09-13T06:42:22;99740.19;;;18.27;nan
70468;BME280;57934;51.532;7.684;2022-09-13T06:44:49;99747.91;;;18.28;nan
70468;BME280;57934;51.532;7.684;2022-09-13T06:47:14;99743.69;;;18.32;nan
70468;BME280;57934;51.532;7.684;2022-09-13T06:49:40;99739.16;;;18.33;nan
70468;BME280;57934;51.532;7.684;2022-09-13T06:52:07;99741.28;;;18.31;nan
70468;BME280;57934;51.532;7.684;2022-09-13T06:54:33;99751.44;;;18.34;nan
70468;BME280;57934;51.532;7.684;2022-09-13T06:56:59;99755.75;;;18.40;nan
70468;BME280;57934;51.532;7.684;2022-09-13T06:59:27;99748.84;;;18.44;nan
70468;BME280;57934;51.532;7.684;2022-09-13T07:01:53;99749.63;;;18.40;nan
70468;BME280;57934;51.532;7.684;2022-09-13T07:04:19;99761.69;;;18.47;nan
70468;BME280;57934;51.532;7.684;2022-09-13T07:06:47;99761.97;;;18.51;nan
70468;BME280;57934;51.532;7.684;2022-09-13T07:09:17;99759.34;;;18.61;nan
70468;BME280;57934;51.532;7.684;2022-09-13T07:11:44;99761.50;;;18.64;nan
70468;BME280;57934;51.532;7.684;2022-09-13T07:14:16;99761.31;;;18.81;nan
70468;BME280;57934;51.532;7.684;2022-09-13T07:16:42;99761.97;;;19.08;nan
70468;BME280;57934;51.532;7.684;2022-09-13T07:19:13;99766.34;;;19.40;nan
70468;BME280;57934;51.532;7.684;2022-09-13T07:21:40;99760.00;;;19.67;nan
70468;BME280;57934;51.532;7.684;2022-09-13T07:24:06;99768.06;;;19.87;nan
70468;BME280;57934;51.532;7.684;2022-09-13T07:26:32;99771.53;;;19.98;nan
70468;BME280;57934;51.532;7.684;2022-09-13T07:29:00;99770.72;;;20.02;nan
70468;BME280;57934;51.532;7.684;2022-09-13T07:31:32;99763.22;;;20.05;nan
70468;BME280;57934;51.532;7.684;2022-09-13T07:34:01;99763.22;;;20.05;nan
70468;BME280;57934;51.532;7.684;2022-09-13T07:36:29;99766.16;;;20.13;nan
70468;BME280;57934;51.532;7.684;2022-09-13T07:38:56;99766.16;;;20.18;nan
70468;BME280;57934;51.532;7.684;2022-09-13T07:41:24;99770.94;;;20.32;nan
70468;BME280;57934;51.532;7.684;2022-09-13T07:43:50;99776.28;;;20.67;nan
70468;BME280;57934;51.532;7.684;2022-09-13T07:46:19;99771.50;;;21.24;nan
70468;BME280;57934;51.532;7.684;2022-09-13T07:48:46;99776.06;;;21.68;nan
70468;BME280;57934;51.532;7.684;2022-09-13T07:51:13;99775.06;;;21.93;nan
70468;BME280;57934;51.532;7.684;2022-09-13T07:53:41;99769.78;;;22.17;nan
70468;BME280;57934;51.532;7.684;2022-09-13T07:56:13;99771.66;;;22.46;nan
70468;BME280;57934;51.532;7.684;2022-09-13T07:58:40;99775.84;;;22.57;nan
70468;BME280;57934;51.532;7.684;2022-09-13T08:03:34;99779.47;;;22.47;nan
70468;BME280;57934;51.532;7.684;2022-09-13T08:06:02;99781.47;;;22.60;nan
70468;BME280;57934;51.532;7.684;2022-09-13T08:08:29;99781.59;;;22.98;nan
70468;BME280;57934;51.532;7.684;2022-09-13T08:10:55;99780.34;;;23.09;nan
70468;BME280;57934;51.532;7.684;2022-09-13T08:13:22;99780.56;;;22.94;nan
70468;BME280;57934;51.532;7.684;2022-09-13T08:15:48;99784.28;;;22.98;nan
70468;BME280;57934;51.532;7.684;2022-09-13T08:18:16;99793.91;;;23.23;nan
70468;BME280;57934;51.532;7.684;2022-09-13T08:20:42;99796.75;;;23.13;nan
70468;BME280;57934;51.532;7.684;2022-09-13T08:23:08;99798.69;;;23.07;nan
70468;BME280;57934;51.532;7.684;2022-09-13T08:25:35;99797.91;;;23.07;nan
70468;BME280;57934;51.532;7.684;2022-09-13T08:28:07;99793.91;;;23.23;nan
70468;BME280;57934;51.532;7.684;2022-09-13T08:30:34;99800.34;;;23.27;nan
70468;BME280;57934;51.532;7.684;2022-09-13T08:33:03;99801.84;;;23.15;nan
70468;BME280;57934;51.532;7.684;2022-09-13T08:35:30;99790.72;;;23.21;nan
70468;BME280;57934;51.532;7.684;2022-09-13T08:37:56;99799.00;;;23.25;nan
70468;BME280;57934;51.532;7.684;2022-09-13T08:40:25;99797.56;;;23.14;nan
70468;BME280;57934;51.532;7.684;2022-09-13T08:43:04;99796.75;;;22.65;nan
70468;BME280;57934;51.532;7.684;2022-09-13T08:45:31;99792.78;;;22.57;nan
70468;BME280;57934;51.532;7.684;2022-09-13T08:48:01;99791.84;;;22.91;nan
70468;BME280;57934;51.532;7.684;2022-09-13T08:50:32;99796.81;;;23.70;nan
70468;BME280;57934;51.532;7.684;2022-09-13T08:53:11;99791.56;;;24.25;nan
70468;BME280;57934;51.532;7.684;2022-09-13T09:07:12;99787.47;;;25.52;nan
70468;BME280;57934;51.532;7.684;2022-09-13T09:10:01;99782.88;;;25.88;nan
70468;BME280;57934;51.532;7.684;2022-09-13T09:12:45;99783.47;;;26.61;nan
70468;BME280;57934;51.532;7.684;2022-09-13T09:15:22;99784.69;;;26.55;nan
70468;BME280;57934;51.532;7.684;2022-09-13T09:17:50;99784.13;;;27.50;nan
70468;BME280;57934;51.532;7.684;2022-09-13T09:20:23;99782.47;;;28.19;nan
70468;BME280;57934;51.532;7.684;2022-09-13T09:22:52;99779.44;;;28.67;nan
70468;BME280;57934;51.532;7.684;2022-09-13T09:25:23;99787.59;;;29.47;nan
70468;BME280;57934;51.532;7.684;2022-09-13T09:27:50;99783.66;;;29.15;nan
70468;BME280;57934;51.532;7.684;2022-09-13T09:30:16;99781.34;;;29.89;nan
70468;BME280;57934;51.532;7.684;2022-09-13T09:33:12;99778.63;;;30.47;nan
70468;BME280;57934;51.532;7.684;2022-09-13T09:35:54;99778.53;;;31.04;nan
70468;BME280;57934;51.532;7.684;2022-09-13T09:38:31;99772.47;;;31.23;nan
70468;BME280;57934;51.532;7.684;2022-09-13T09:41:00;99768.50;;;31.33;nan
70468;BME280;57934;51.532;7.684;2022-09-13T09:43:38;99768.59;;;31.36;nan
70468;BME280;57934;51.532;7.684;2022-09-13T09:46:08;99770.19;;;31.25;nan
70468;BME280;57934;51.532;7.684;2022-09-13T09:48:40;99761.03;;;31.18;nan
70468;BME280;57934;51.532;7.684;2022-09-13T09:51:10;99757.06;;;31.15;nan
70468;BME280;57934;51.532;7.684;2022-09-13T09:53:43;99760.31;;;31.33;nan
70468;BME280;57934;51.532;7.684;2022-09-13T09:56:23;99759.28;;;31.37;nan
70468;BME280;57934;51.532;7.684;2022-09-13T09:58:51;99759.78;;;31.15;nan
70468;BME280;57934;51.532;7.684;2022-09-13T10:04:07;99760.13;;;30.28;nan
70468;BME280;57934;51.532;7.684;2022-09-13T10:06:43;99762.63;;;30.21;nan
70468;BME280;57934;51.532;7.684;2022-09-13T10:09:20;99761.75;;;30.08;nan
70468;BME280;57934;51.532;7.684;2022-09-13T10:11:49;99764.91;;;29.43;nan
70468;BME280;57934;51.532;7.684;2022-09-13T10:14:36;99765.50;;;28.77;nan
70468;BME280;57934;51.532;7.684;2022-09-13T10:17:24;99762.41;;;28.88;nan
70468;BME280;57934;51.532;7.684;2022-09-13T10:22:17;99771.09;;;29.53;nan
70468;BME280;57934;51.532;7.684;2022-09-13T10:24:43;99770.09;;;29.78;nan
70468;BME280;57934;51.532;7.684;2022-09-13T10:27:22;99772.75;;;30.11;nan
70468;BME280;57934;51.532;7.684;2022-09-13T10:29:51;99763.75;;;30.32;nan
70468;BME280;57934;51.532;7.684;2022-09-13T10:32:20;99760.81;;;30.25;nan
70468;BME280;57934;51.532;7.684;2022-09-13T10:34:48;99758.56;;;30.63;nan
70468;BME280;57934;51.532;7.684;2022-09-13T10:37:33;99761.88;;;31.46;nan
70468;BME280;57934;51.532;7.684;2022-09-13T10:40:07;99764.22;;;31.60;nan
70468;BME280;57934;51.532;7.684;2022-09-13T10:42:50;99768.16;;;31.63;nan
70468;BME280;57934;51.532;7.684;2022-09-13T10:45:28;99759.84;;;31.31;nan
70468;BME280;57934;51.532;7.684;2022-09-13T10:48:11;99760.72;;;31.47;nan
70468;BME280;57934;51.532;7.684;2022-09-13T10:50:38;99752.03;;;31.70;nan
70468;BME280;57934;51.532;7.684;2022-09-13T10:53:41;99760.78;;;31.91;nan
70468;BME280;57934;51.532;7.684;2022-09-13T10:56:19;99763.72;;;31.30;nan
70468;BME280;57934;51.532;7.684;2022-09-13T10:58:45;99756.22;;;31.39;nan
70468;BME280;57934;51.532;7.684;2022-09-13T11:07:28;99740.28;;;31.97;nan
70468;BME280;57934;51.532;7.684;2022-09-13T11:10:20;99739.16;;;31.70;nan
70468;BME280;57934;51.532;7.684;2022-09-13T11:13:06;99739.97;;;31.43;nan
70468;BME280;57934;51.532;7.684;2022-09-13T11:15:40;99727.72;;;31.36;nan
70468;BME280;57934;51.532;7.684;2022-09-13T11:18:37;99738.16;;;31.63;nan
70468;BME280;57934;51.532;7.684;2022-09-13T11:21:34;99735.19;;;32.12;nan
70468;BME280;57934;51.532;7.684;2022-09-13T11:35:21;99728.22;;;32.14;nan
70468;BME280;57934;51.532;7.684;2022-09-13T11:46:42;99721.66;;;33.99;nan
70468;BME280;57934;51.532;7.684;2022-09-13T11:49:44;99714.03;;;34.87;nan
70468;BME280;57934;51.532;7.684;2022-09-13T11:55:16;99709.63;;;34.03;nan
70468;BME280;57934;51.532;7.684;2022-09-13T11:57:48;99702.13;;;34.23;nan
70468;BME280;57934;51.532;7.684;2022-09-13T12:00:23;99699.75;;;35.01;nan
70468;BME280;57934;51.532;7.684;2022-09-13T12:02:59;99702.13;;;35.36;nan
70468;BME280;57934;51.532;7.684;2022-09-13T12:06:01;99698.63;;;34.76;nan
70468;BME280;57934;51.532;7.684;2022-09-13T12:08:34;99704.53;;;32.66;nan
70468;BME280;57934;51.532;7.684;2022-09-13T12:11:02;99704.16;;;30.51;nan
70468;BME280;57934;51.532;7.684;2022-09-13T12:13:31;99694.41;;;29.47;nan
70468;BME280;57934;51.532;7.684;2022-09-13T12:16:04;99688.09;;;28.50;nan
70468;BME280;57934;51.532;7.684;2022-09-13T12:18:36;99681.31;;;27.80;nan
70468;BME280;57934;51.532;7.684;2022-09-13T12:23:35;99689.16;;;27.03;nan
70468;BME280;57934;51.532;7.684;2022-09-13T12:26:13;99690.88;;;26.82;nan
70468;BME280;57934;51.532;7.684;2022-09-13T12:29:00;99691.44;;;26.53;nan
70468;BME280;57934;51.532;7.684;2022-09-13T12:31:29;99682.00;;;26.33;nan
70468;BME280;57934;51.532;7.684;2022-09-13T12:33:56;99683.53;;;26.25;nan
70468;BME280;57934;51.532;7.684;2022-09-13T12:39:20;99676.25;;;26.26;nan
70468;BME280;57934;51.532;7.684;2022-09-13T12:50:24;99670.78;;;26.57;nan
70468;BME280;57934;51.532;7.684;2022-09-13T13:01:00;99671.78;;;25.90;nan
70468;BME280;57934;51.532;7.684;2022-09-13T13:03:33;99660.56;;;26.05;nan
70468;BME280;57934;51.532;7.684;2022-09-13T13:06:33;99664.31;;;26.27;nan
70468;BME280;57934;51.532;7.684;2022-09-13T13:09:32;99656.00;;;26.54;nan
70468;BME280;57934;51.532;7.684;2022-09-13T13:11:59;99659.00;;;26.53;nan
70468;BME280;57934;51.532;7.684;2022-09-13T13:19:59;99657.25;;;26.08;nan
70468;BME280;57934;51.532;7.684;2022-09-13T13:25:35;99655.06;;;25.57;nan
70468;BME280;57934;51.532;7.684;2022-09-13T13:41:56;99657.50;;;25.44;nan
70468;BME280;57934;51.532;7.684;2022-09-13T13:46:50;99647.19;;;25.46;nan
70468;BME280;57934;51.532;7.684;2022-09-13T13:57:44;99656.44;;;25.77;nan
70468;BME280;57934;51.532;7.684;2022-09-13T14:00:20;99646.09;;;25.79;nan
70468;BME280;57934;51.532;7.684;2022-09-13T14:11:17;99641.75;;;25.15;nan
70468;BME280;57934;51.532;7.684;2022-09-13T14:19:46;99635.69;;;25.32;nan
70468;BME280;57934;51.532;7.684;2022-09-13T14:22:23;99637.47;;;25.14;nan
70468;BME280;57934;51.532;7.684;2022-09-13T14:24:56;99632.00;;;24.92;nan
70468;BME280;57934;51.532;7.684;2022-09-13T14:27:25;99626.69;;;25.00;nan
70468;BME280;57934;51.532;7.684;2022-09-13T14:29:56;99626.22;;;24.85;nan
70468;BME280;57934;51.532;7.684;2022-09-13T14:32:30;99634.47;;;24.66;nan
70468;BME280;57934;51.532;7.684;2022-09-13T14:35:00;99631.03;;;24.74;nan
70468;BME280;57934;51.532;7.684;2022-09-13T14:37:33;99634.63;;;24.83;nan
70468;BME280;57934;51.532;7.684;2022-09-13T14:40:18;99627.09;;;24.94;nan
70468;BME280;57934;51.532;7.684;2022-09-13T14:42:46;99624.25;;;25.13;nan
70468;BME280;57934;51.532;7.684;2022-09-13T14:50:24;99628.19;;;25.29;nan
70468;BME280;57934;51.532;7.684;2022-09-13T14:53:00;99636.41;;;25.24;nan
70468;BME280;57934;51.532;7.684;2022-09-13T14:55:34;99632.91;;;25.23;nan
70468;BME280;57934;51.532;7.684;2022-09-13T14:58:05;99632.63;;;25.25;nan
70468;BME280;57934;51.532;7.684;2022-09-13T15:00:36;99627.28;;;24.97;nan
70468;BME280;57934;51.532;7.684;2022-09-13T15:03:13;99633.91;;;24.91;nan
70468;BME280;57934;51.532;7.684;2022-09-13T15:05:40;99630.72;;;24.89;nan
70468;BME280;57934;51.532;7.684;2022-09-13T15:10:59;99621.88;;;24.75;nan
70468;BME280;57934;51.532;7.684;2022-09-13T15:13:26;99631.38;;;24.59;nan
70468;BME280;57934;51.532;7.684;2022-09-13T15:15:52;99613.66;;;24.44;nan
70468;BME280;57934;51.532;7.684;2022-09-13T15:21:05;99629.19;;;24.05;nan
70468;BME280;57934;51.532;7.684;2022-09-13T15:23:41;99628.50;;;24.00;nan
70468;BME280;57934;51.532;7.684;2022-09-13T15:26:10;99622.09;;;23.96;nan
70468;BME280;57934;51.532;7.684;2022-09-13T15:31:06;99622.00;;;23.73;nan
70468;BME280;57934;51.532;7.684;2022-09-13T15:33:33;99624.16;;;23.71;nan
70468;BME280;57934;51.532;7.684;2022-09-13T15:41:37;99624.91;;;23.91;nan
70468;BME280;57934;51.532;7.684;2022-09-13T15:44:05;99613.94;;;24.01;nan
70468;BME280;57934;51.532;7.684;2022-09-13T15:46:45;99615.03;;;24.00;nan
70468;BME280;57934;51.532;7.684;2022-09-13T15:49:15;99616.72;;;24.10;nan
70468;BME280;57934;51.532;7.684;2022-09-13T15:51:43;99615.41;;;24.21;nan
70468;BME280;57934;51.532;7.684;2022-09-13T15:54:11;99615.63;;;24.24;nan
70468;BME280;57934;51.532;7.684;2022-09-13T15:56:41;99609.44;;;24.24;nan
70468;BME280;57934;51.532;7.684;2022-09-13T15:59:12;99611.94;;;24.07;nan
70468;BME280;57934;51.532;7.684;2022-09-13T16:01:38;99618.41;;;23.92;nan
70468;BME280;57934;51.532;7.684;2022-09-13T16:04:04;99612.81;;;23.74;nan
70468;BME280;57934;51.532;7.684;2022-09-13T16:06:31;99616.84;;;23.58;nan
70468;BME280;57934;51.532;7.684;2022-09-13T16:08:57;99615.44;;;23.61;nan
70468;BME280;57934;51.532;7.684;2022-09-13T16:11:25;99623.84;;;23.59;nan
70468;BME280;57934;51.532;7.684;2022-09-13T16:13:51;99618.94;;;23.61;nan
70468;BME280;57934;51.532;7.684;2022-09-13T16:16:17;99616.63;;;23.54;nan
70468;BME280;57934;51.532;7.684;2022-09-13T16:18:43;99619.00;;;23.42;nan
70468;BME280;57934;51.532;7.684;2022-09-13T16:21:09;99613.19;;;23.35;nan
70468;BME280;57934;51.532;7.684;2022-09-13T16:23:35;99615.09;;;23.34;nan
70468;BME280;57934;51.532;7.684;2022-09-13T16:26:03;99615.16;;;23.29;nan
70468;BME280;57934;51.532;7.684;2022-09-13T16:28:29;99612.41;;;23.16;nan
70468;BME280;57934;51.532;7.684;2022-09-13T16:30:55;99610.75;;;23.20;nan
70468;BME280;57934;51.532;7.684;2022-09-13T16:33:21;99616.28;;;23.09;nan
70468;BME280;57934;51.532;7.684;2022-09-13T16:35:47;99614.19;;;23.06;nan
70468;BME280;57934;51.532;7.684;2022-09-13T16:38:14;99613.56;;;22.96;nan
70468;BME280;57934;51.532;7.684;2022-09-13T16:40:41;99610.97;;;22.85;nan
70468;BME280;57934;51.532;7.684;2022-09-13T16:43:08;99616.06;;;22.87;nan
70468;BME280;57934;51.532;7.684;2022-09-13T16:45:37;99612.34;;;22.83;nan